Time;durP1;ratioP1;P1;durP2;ratioP2;P2;SDS_P1;SDS_P2;PMS_P1;PMS_P2;Temp;Humidity;BMP_temperature;BMP_pressure;BME280_temperature;BME280_humidity;BME280_pressure;Samples;Min_cycle;Max_cycle;Signal;HPM_P1;HPM_P2
2022/09/24 09:12:15;;;;;;;6.63;1.77;;;15.00;99.90;;;;;;5089396;27;20124;-78
2022/09/24 09:15:02;;;;;;;7.70;1.70;;;15.10;99.90;;;;;;5088195;28;20044;-81
2022/09/24 09:17:30;;;;;;;8.23;2.22;;;15.20;99.90;;;;;;5088717;28;20048;-81
2022/09/24 09:20:02;;;;;;;7.95;1.50;;;15.30;99.90;;;;;;5087812;28;20051;-82
2022/09/24 09:22:34;;;;;;;6.93;1.85;;;15.30;99.90;;;;;;5087857;28;20044;-83
2022/09/24 09:25:17;;;;;;;4.97;1.27;;;15.40;99.90;;;;;;5087913;28;20044;-81
2022/09/24 09:27:43;;;;;;;7.40;1.40;;;15.50;99.90;;;;;;5069819;28;20040;-82
2022/09/24 09:30:15;;;;;;;8.65;1.60;;;15.50;99.90;;;;;;5087239;28;20283;-82
2022/09/24 09:32:50;;;;;;;8.18;1.33;;;15.50;99.90;;;;;;5087798;28;20076;-82
2022/09/24 09:35:26;;;;;;;7.90;1.77;;;15.60;99.90;;;;;;5071077;28;20040;-82
2022/09/24 09:38:28;;;;;;;7.90;1.45;;;15.50;99.90;;;;;;5088708;28;20032;-82
2022/09/24 09:41:39;;;;;;;6.82;1.42;;;15.50;99.90;;;;;;5087569;28;20045;-80
2022/09/24 09:44:19;;;;;;;10.02;2.10;;;15.30;99.90;;;;;;5078774;28;20044;-81
2022/09/24 09:47:08;;;;;;;10.18;1.70;;;15.30;99.90;;;;;;5070622;28;20045;-81
2022/09/24 09:49:37;;;;;;;8.10;2.23;;;15.20;99.90;;;;;;5087519;28;20089;-81
2022/09/24 09:52:12;;;;;;;9.88;1.80;;;15.20;99.90;;;;;;5087477;28;20375;-81
2022/09/24 09:54:40;;;;;;;9.50;2.05;;;15.40;99.90;;;;;;5070714;28;20189;-79
2022/09/24 09:57:13;;;;;;;9.48;1.70;;;15.40;99.90;;;;;;5087556;28;20510;-80
2022/09/24 09:59:39;;;;;;;7.88;1.35;;;15.60;99.90;;;;;;5084919;28;20044;-80
2022/09/24 10:02:18;;;;;;;7.40;1.35;;;15.60;99.90;;;;;;5087280;28;20097;-78
2022/09/24 10:04:45;;;;;;;8.75;1.45;;;15.70;99.90;;;;;;5088633;28;20040;-79
2022/09/24 10:07:15;;;;;;;8.82;1.63;;;15.70;99.90;;;;;;5087579;28;20040;-75
2022/09/24 10:09:42;;;;;;;;;;;15.60;99.90;;;;;;5070857;28;20072;-77
2022/09/24 10:12:15;;;;;;;6.22;1.35;;;15.70;99.90;;;;;;5087386;28;19916;-77
2022/09/24 10:14:42;;;;;;;7.75;1.50;;;15.70;99.90;;;;;;5087672;28;20051;-73
2022/09/24 10:17:15;;;;;;;7.28;1.85;;;15.70;99.90;;;;;;5088207;28;20056;-75
2022/09/24 10:19:44;;;;;;;6.47;1.23;;;15.70;99.90;;;;;;5088306;28;20510;-77
2022/09/24 10:22:25;;;;;;;6.15;1.92;;;15.70;99.90;;;;;;5082993;28;20492;-75
2022/09/24 10:24:53;;;;;;;9.45;1.38;;;15.70;99.90;;;;;;5075751;28;20123;-78
2022/09/24 10:27:34;;;;;;;5.78;1.42;;;15.60;99.90;;;;;;5076074;28;20487;-77
2022/09/24 10:32:59;;;;;;;4.25;1.65;;;15.70;99.90;;;;;;5069111;28;20037;-76
2022/09/24 10:35:30;;;;;;;9.50;2.65;;;15.70;99.90;;;;;;5070300;28;20041;-77
2022/09/24 10:37:59;;;;;;;9.57;1.80;;;15.80;99.90;;;;;;5075038;28;20055;-77
2022/09/24 10:40:40;;;;;;;7.70;1.20;;;15.80;99.90;;;;;;5057760;28;20197;-76
2022/09/24 10:43:16;;;;;;;8.00;1.30;;;15.90;99.90;;;;;;5055349;28;20391;-76
2022/09/24 10:45:57;;;;;;;5.57;0.95;;;15.90;99.90;;;;;;5075810;28;20048;-76
2022/09/24 10:48:40;;;;;;;5.13;1.35;;;15.90;99.90;;;;;;5074080;28;20551;-74
2022/09/24 10:51:47;;;;;;;9.23;1.55;;;15.90;99.90;;;;;;5074039;28;20396;-72
2022/09/24 10:54:40;;;;;;;7.18;1.92;;;15.80;99.90;;;;;;5075064;28;20097;-73
2022/09/24 10:57:40;;;;;;;10.63;1.58;;;15.70;99.90;;;;;;5075088;28;20072;-77
2022/09/24 11:00:17;;;;;;;6.53;1.60;;;15.60;99.90;;;;;;5073347;28;20485;-76
2022/09/24 11:02:58;;;;;;;10.52;1.80;;;15.60;99.90;;;;;;5073725;28;20519;-74
2022/09/24 11:05:42;;;;;;;6.20;1.30;;;15.60;99.90;;;;;;5071349;28;20032;-73
2022/09/24 11:08:21;;;;;;;5.18;1.10;;;15.50;99.90;;;;;;5073675;28;20059;-74
2022/09/24 11:11:15;;;;;;;8.90;1.45;;;15.40;99.90;;;;;;5074508;28;20044;-76
2022/09/24 11:14:10;;;;;;;6.32;1.73;;;15.40;99.90;;;;;;5074174;28;20057;-73
2022/09/24 11:16:37;;;;;;;10.70;1.50;;;15.50;99.90;;;;;;5027761;28;20052;-74
2022/09/24 11:19:14;;;;;;;5.57;1.20;;;15.60;99.90;;;;;;5073666;28;20093;-75
2022/09/24 11:21:56;;;;;;;8.38;2.03;;;15.60;99.90;;;;;;5073585;28;20492;-75
2022/09/24 11:24:31;;;;;;;7.00;1.35;;;15.70;99.90;;;;;;5073482;28;20036;-75
2022/09/24 11:27:15;;;;;;;6.80;1.70;;;15.90;99.90;;;;;;5074273;28;20052;-74
2022/09/24 11:30:00;;;;;;;6.03;1.13;;;15.90;99.90;;;;;;5071015;28;20044;-74
2022/09/24 11:33:05;;;;;;;6.95;1.30;;;16.00;99.90;;;;;;5073073;28;20051;-76
2022/09/24 11:35:55;;;;;;;7.82;1.48;;;16.00;99.90;;;;;;4975588;28;20117;-74
2022/09/24 11:38:54;;;;;;;8.75;1.67;;;16.10;99.90;;;;;;4976313;28;20038;-76
2022/09/24 11:41:44;;;;;;;6.38;1.75;;;16.10;99.90;;;;;;5058728;28;20053;-75
2022/09/24 11:45:03;;;;;;;7.72;1.45;;;16.10;99.90;;;;;;5074351;28;20041;-79
2022/09/24 11:47:32;;;;;;;9.35;1.75;;;16.10;99.90;;;;;;4992471;28;20038;-78
2022/09/24 11:50:07;;;;;;;7.45;1.92;;;16.10;99.90;;;;;;5068900;28;20140;-76
2022/09/24 11:52:42;;;;;;;7.40;1.67;;;16.10;99.90;;;;;;5056338;28;20451;-76
2022/09/24 11:55:22;;;;;;;6.38;1.70;;;16.00;99.90;;;;;;5072548;28;20044;-74
2022/09/24 11:58:11;;;;;;;12.68;2.25;;;16.10;99.90;;;;;;5054594;28;20040;-72
2022/09/24 12:00:43;;;;;;;12.18;2.55;;;16.10;99.90;;;;;;5072946;28;20368;-72
2022/09/24 12:03:23;;;;;;;11.13;1.98;;;16.20;99.90;;;;;;5073676;28;20098;-73
2022/09/24 12:06:16;;;;;;;9.23;1.65;;;16.40;99.90;;;;;;5072491;28;20420;-73
2022/09/24 12:08:45;;;;;;;17.05;2.13;;;16.50;99.90;;;;;;5049263;28;20038;-75
2022/09/24 12:11:21;;;;;;;10.35;1.60;;;16.60;99.90;;;;;;5072871;28;20119;-74
2022/09/24 12:14:20;;;;;;;8.32;1.55;;;16.60;99.90;;;;;;5072168;28;20098;-73
2022/09/24 12:16:50;;;;;;;7.57;1.77;;;16.50;99.90;;;;;;5071395;28;20126;-72
2022/09/24 12:19:22;;;;;;;6.38;1.50;;;16.40;99.90;;;;;;5055333;28;20803;-72
2022/09/24 12:21:51;;;;;;;10.23;1.70;;;16.30;99.90;;;;;;5072228;28;20131;-73
2022/09/24 12:24:42;;;;;;;9.15;1.30;;;16.20;99.90;;;;;;5073349;28;20056;-74
2022/09/24 12:27:18;;;;;;;8.63;1.40;;;16.10;99.90;;;;;;5071928;28;20127;-73
2022/09/24 12:33:12;;;;;;;6.65;1.70;;;15.90;99.90;;;;;;5071878;28;20492;-73
2022/09/24 12:36:00;;;;;;;12.20;1.88;;;15.70;99.90;;;;;;5071800;28;20475;-74
2022/09/24 12:38:52;;;;;;;8.23;1.40;;;15.60;99.90;;;;;;5071201;28;20044;-74
2022/09/24 12:41:24;;;;;;;6.95;1.30;;;15.60;99.90;;;;;;5071421;28;20044;-73
2022/09/24 12:44:11;;;;;;;6.55;1.58;;;15.50;99.90;;;;;;5071777;28;20052;-74
2022/09/24 12:46:52;;;;;;;6.57;1.40;;;15.40;99.90;;;;;;5071415;28;20492;-73
2022/09/24 12:49:23;;;;;;;9.48;1.75;;;15.30;99.90;;;;;;5071473;28;20040;-74
2022/09/24 12:51:52;;;;;;;7.57;1.88;;;15.30;99.90;;;;;;5071559;28;20421;-75
2022/09/24 12:54:33;;;;;;;5.30;1.20;;;15.30;99.90;;;;;;5071600;28;20056;-74
2022/09/24 12:57:12;;;;;;;10.02;1.48;;;15.30;99.90;;;;;;5071795;28;20373;-74
2022/09/24 12:59:53;;;;;;;7.28;1.15;;;15.20;99.90;;;;;;5070755;28;20672;-73
2022/09/24 13:02:20;;;;;;;7.85;1.75;;;15.20;99.90;;;;;;5071473;28;20518;-74
2022/09/24 13:05:04;;;;;;;9.32;1.73;;;15.20;99.90;;;;;;5071552;28;20052;-74
2022/09/24 13:07:39;;;;;;;6.78;1.52;;;15.20;99.90;;;;;;5071421;28;20048;-74
2022/09/24 13:10:17;;;;;;;4.88;1.02;;;15.30;99.90;;;;;;5072606;28;20047;-74
2022/09/24 13:12:44;;;;;;;4.68;1.45;;;15.30;99.90;;;;;;5072678;28;20161;-73
2022/09/24 13:15:37;;;;;;;8.18;1.60;;;15.40;99.90;;;;;;5071625;28;20063;-75
2022/09/24 13:18:09;;;;;;;5.38;1.48;;;15.40;99.90;;;;;;5072807;28;20037;-74
2022/09/24 13:20:38;;;;;;;5.72;1.60;;;15.40;99.90;;;;;;5072772;28;20044;-74
2022/09/24 13:23:18;;;;;;;6.70;1.37;;;15.40;99.90;;;;;;5071545;28;20044;-77
2022/09/24 13:26:03;;;;;;;4.40;1.40;;;15.50;99.90;;;;;;5071491;28;20446;-72
2022/09/24 13:28:32;;;;;;;6.35;1.13;;;15.60;99.90;;;;;;5069350;28;20040;-73
2022/09/24 13:31:16;;;;;;;6.05;1.60;;;15.70;99.90;;;;;;5054523;28;20052;-72
2022/09/24 13:33:46;;;;;;;6.93;1.73;;;15.80;99.90;;;;;;5071505;28;20040;-72
2022/09/24 13:36:42;;;;;;;9.95;1.70;;;15.90;99.90;;;;;;5071159;28;20077;-72
2022/09/24 13:39:41;;;;;;;5.80;1.33;;;16.10;99.90;;;;;;5071405;28;20415;-74
2022/09/24 13:42:19;;;;;;;5.25;1.27;;;16.20;99.90;;;;;;5041263;28;20404;-72
2022/09/24 13:44:58;;;;;;;7.75;1.48;;;16.20;99.90;;;;;;5072335;28;20041;-72
2022/09/24 13:47:44;;;;;;;5.78;1.65;;;16.20;99.90;;;;;;5072215;28;20048;-71
2022/09/24 13:50:23;;;;;;;16.77;2.72;;;16.30;99.90;;;;;;5054304;28;20041;-72
2022/09/24 13:52:55;;;;;;;5.13;1.40;;;16.30;99.90;;;;;;5071245;28;20034;-72
2022/09/24 13:55:44;;;;;;;7.75;2.60;;;16.40;99.90;;;;;;5070924;28;20084;-72
2022/09/24 13:58:33;;;;;;;9.93;2.00;;;16.40;99.90;;;;;;5072027;28;20139;-73
2022/09/24 14:01:02;;;;;;;8.93;1.45;;;16.40;99.90;;;;;;5075050;28;20419;-73
2022/09/24 14:03:34;;;;;;;9.35;2.00;;;16.40;99.90;;;;;;5074478;28;20508;-73
2022/09/24 14:06:08;;;;;;;8.10;1.83;;;16.30;99.90;;;;;;5074696;28;20043;-73
2022/09/24 14:08:34;;;;;;;9.73;2.00;;;16.30;99.90;;;;;;5074629;28;20040;-73
2022/09/24 14:11:17;;;;;;;11.82;2.13;;;16.30;99.90;;;;;;5057754;28;20036;-73
2022/09/24 14:13:46;;;;;;;9.73;1.85;;;16.40;99.90;;;;;;5074530;28;20036;-73
2022/09/24 14:16:23;;;;;;;6.60;2.13;;;16.30;99.90;;;;;;5058044;28;20041;-73
2022/09/24 14:19:01;;;;;;;8.25;1.92;;;16.40;99.90;;;;;;5074214;28;20505;-73
2022/09/24 14:21:36;;;;;;;6.68;1.70;;;16.40;99.90;;;;;;5074497;28;20376;-73
2022/09/24 14:24:21;;;;;;;7.88;1.90;;;16.30;99.90;;;;;;5075681;28;20052;-74
2022/09/24 14:27:04;;;;;;;12.38;1.80;;;16.30;99.90;;;;;;5075476;28;20488;-74
2022/09/24 14:29:55;;;;;;;5.30;1.40;;;16.20;99.90;;;;;;5072006;28;20056;-73
2022/09/24 14:32:27;;;;;;;8.50;1.90;;;16.20;99.90;;;;;;5074161;28;20048;-73
2022/09/24 14:34:57;;;;;;;6.90;1.92;;;16.20;99.90;;;;;;5074408;28;20043;-73
2022/09/24 14:37:32;;;;;;;5.35;1.45;;;16.10;99.90;;;;;;5074139;28;20333;-73
2022/09/24 14:40:20;;;;;;;9.85;1.80;;;16.10;99.90;;;;;;5074272;28;20056;-73
2022/09/24 14:42:54;;;;;;;5.68;1.75;;;16.10;99.90;;;;;;5059570;28;20033;-74
2022/09/24 14:45:23;;;;;;;7.05;1.45;;;16.10;99.90;;;;;;5078593;28;20036;-73
2022/09/24 14:48:31;;;;;;;11.57;2.28;;;16.10;99.90;;;;;;5061454;28;20043;-74
2022/09/24 14:50:57;;;;;;;8.38;1.40;;;16.00;99.90;;;;;;5061078;28;20044;-74
2022/09/24 14:53:33;;;;;;;6.30;2.00;;;15.80;99.90;;;;;;5078222;28;20056;-74
2022/09/24 14:56:00;;;;;;;14.20;1.85;;;15.80;99.90;;;;;;5077923;28;20033;-74
2022/09/24 14:58:26;;;;;;;8.98;1.83;;;15.70;99.90;;;;;;5075701;28;20067;-74
2022/09/24 15:01:01;;;;;;;6.57;1.23;;;15.70;99.90;;;;;;5078047;28;20098;-74
2022/09/24 15:03:51;;;;;;;5.05;1.48;;;15.70;99.90;;;;;;5079084;28;20044;-73
2022/09/24 15:06:22;;;;;;;5.22;0.80;;;15.60;99.90;;;;;;5079501;28;20051;-75
2022/09/24 15:09:05;;;;;;;4.68;1.20;;;15.60;99.90;;;;;;5077970;28;20043;-75
2022/09/24 15:11:33;;;;;;;3.90;0.90;;;15.50;99.90;;;;;;5077627;28;20110;-73
2022/09/24 15:14:18;;;;;;;4.10;0.93;;;15.40;99.90;;;;;;5077710;28;20072;-75
2022/09/24 15:16:46;;;;;;;3.83;0.80;;;15.40;99.90;;;;;;5078825;28;20115;-73
2022/09/24 15:19:25;;;;;;;5.97;1.30;;;15.30;99.90;;;;;;5077135;28;20051;-74
2022/09/24 15:21:56;;;;;;;4.72;1.10;;;15.30;99.90;;;;;;5078990;28;20033;-75
2022/09/24 15:24:23;;;;;;;4.18;0.73;;;15.20;99.90;;;;;;5077847;28;20072;-74
2022/09/24 15:27:05;;;;;;;2.15;0.80;;;15.20;99.90;;;;;;5077443;28;20044;-75
2022/09/24 15:29:31;;;;;;;2.95;0.60;;;15.20;99.90;;;;;;5076804;28;20046;-76
2022/09/24 15:31:58;;;;;;;3.00;0.80;;;15.20;99.90;;;;;;5077572;28;20123;-74
2022/09/24 15:34:24;;;;;;;3.50;0.80;;;15.20;99.90;;;;;;5060770;28;20044;-75
2022/09/24 15:37:00;;;;;;;5.13;1.05;;;15.20;99.90;;;;;;5077553;28;20124;-76
2022/09/24 15:39:27;;;;;;;4.93;1.30;;;15.20;99.90;;;;;;5060786;28;20048;-75
2022/09/24 15:41:53;;;;;;;3.65;0.90;;;15.20;99.90;;;;;;5078840;28;20055;-74
2022/09/24 15:44:22;;;;;;;5.00;1.45;;;15.20;99.90;;;;;;5077357;28;20099;-74
2022/09/24 15:46:50;;;;;;;8.52;1.60;;;15.20;99.90;;;;;;5076741;28;20536;-74
2022/09/24 15:49:23;;;;;;;9.02;1.60;;;15.30;99.90;;;;;;5077011;28;20111;-75
2022/09/24 15:51:54;;;;;;;9.55;1.90;;;15.30;99.90;;;;;;5077451;28;20047;-74
2022/09/24 15:54:21;;;;;;;6.90;0.88;;;15.30;99.90;;;;;;5078236;28;20024;-74
2022/09/24 15:56:51;;;;;;;6.97;1.25;;;15.40;99.90;;;;;;5077944;28;20043;-75
2022/09/24 15:59:21;;;;;;;6.63;1.30;;;15.40;99.90;;;;;;5074710;28;20079;-72
2022/09/24 16:01:49;;;;;;;4.80;1.08;;;15.40;99.90;;;;;;5076474;28;20044;-75
2022/09/24 16:04:16;;;;;;;5.28;1.25;;;15.40;99.90;;;;;;5077883;28;20048;-77
2022/09/24 16:06:42;;;;;;;4.72;1.35;;;15.30;99.90;;;;;;5060393;28;20044;-75
2022/09/24 16:09:08;;;;;;;3.17;1.02;;;15.30;99.90;;;;;;5078296;28;20450;-75
2022/09/24 16:11:34;;;;;;;6.82;1.08;;;15.20;99.90;;;;;;5078047;28;20132;-74
2022/09/24 16:14:00;;;;;;;4.72;1.13;;;15.20;99.90;;;;;;5076289;28;20480;-74
2022/09/24 16:16:25;;;;;;;8.02;1.55;;;15.20;99.90;;;;;;5076055;28;20186;-75
2022/09/24 16:18:53;;;;;;;4.63;1.38;;;15.20;99.90;;;;;;5076135;28;20033;-74
2022/09/24 16:21:19;;;;;;;5.38;1.45;;;15.30;99.90;;;;;;5077192;28;20106;-75
2022/09/24 16:23:45;;;;;;;5.68;0.98;;;15.30;99.90;;;;;;5076254;28;20040;-73
2022/09/24 16:26:11;;;;;;;6.95;1.35;;;15.20;99.90;;;;;;5076096;28;20139;-75
2022/09/24 16:28:37;;;;;;;5.40;1.23;;;15.10;99.90;;;;;;5072753;28;20131;-74
2022/09/24 16:31:06;;;;;;;4.97;0.82;;;15.20;99.90;;;;;;5071816;28;20048;-74
2022/09/24 16:33:37;;;;;;;5.15;1.38;;;15.10;99.90;;;;;;5073221;28;20076;-75
2022/09/24 16:36:05;;;;;;;4.55;0.82;;;15.10;99.90;;;;;;5075727;28;20439;-73
2022/09/24 16:38:36;;;;;;;4.70;1.10;;;14.90;99.90;;;;;;5075579;28;20666;-72
2022/09/24 16:41:03;;;;;;;6.78;0.88;;;14.80;99.90;;;;;;5076968;28;20040;-73
2022/09/24 16:43:30;;;;;;;4.57;0.85;;;14.70;99.90;;;;;;5058762;28;20054;-74
2022/09/24 16:46:05;;;;;;;4.53;1.25;;;14.60;99.90;;;;;;5077700;28;20119;-75
2022/09/24 16:48:31;;;;;;;6.30;1.25;;;14.50;99.90;;;;;;5059478;28;20051;-74
2022/09/24 16:51:05;;;;;;;6.55;1.40;;;14.30;99.90;;;;;;5059342;28;20059;-75
2022/09/24 16:53:33;;;;;;;4.28;0.90;;;14.20;99.90;;;;;;5076558;28;20399;-75
2022/09/24 16:56:07;;;;;;;4.78;0.95;;;14.20;99.90;;;;;;5077884;28;20040;-76
2022/09/24 16:58:33;;;;;;;5.30;0.75;;;14.10;99.90;;;;;;5075786;28;20048;-78
2022/09/24 17:01:03;;;;;;;3.67;1.05;;;14.00;99.90;;;;;;5076714;28;20075;-74
2022/09/24 17:03:29;;;;;;;8.35;1.45;;;13.90;99.90;;;;;;5075936;28;20051;-75
2022/09/24 17:05:55;;;;;;;6.78;1.33;;;13.80;99.90;;;;;;5075979;28;20083;-78
2022/09/24 17:08:20;;;;;;;4.30;1.10;;;13.70;99.90;;;;;;5077097;28;20047;-77
2022/09/24 17:10:50;;;;;;;4.72;0.80;;;13.70;99.90;;;;;;5077292;28;20051;-76
2022/09/24 17:13:16;;;;;;;3.60;1.00;;;13.60;99.90;;;;;;5076553;28;20080;-74
2022/09/24 17:15:43;;;;;;;9.00;1.67;;;13.50;99.90;;;;;;5076766;28;20037;-76
2022/09/24 17:18:09;;;;;;;8.90;1.90;;;13.40;99.90;;;;;;5077669;28;20037;-74
2022/09/24 17:20:35;;;;;;;5.25;1.17;;;13.30;99.90;;;;;;5058749;28;20093;-74
2022/09/24 17:23:01;;;;;;;9.85;1.38;;;13.30;99.90;;;;;;5058904;28;20127;-76
2022/09/24 17:25:27;;;;;;;4.63;1.17;;;13.20;99.90;;;;;;5075195;28;20106;-74
2022/09/24 17:27:53;;;;;;;6.60;1.10;;;13.10;99.90;;;;;;5057867;28;20396;-74
2022/09/24 17:30:22;;;;;;;5.07;1.40;;;13.10;99.90;;;;;;5058596;28;20044;-75
2022/09/24 17:32:48;;;;;;;6.78;1.20;;;13.00;99.90;;;;;;5077834;28;20070;-75
2022/09/24 17:35:14;;;;;;;7.18;1.40;;;12.90;99.90;;;;;;5079846;28;20058;-75
2022/09/24 17:37:40;;;;;;;4.63;1.20;;;12.80;99.90;;;;;;5079543;28;20029;-74
2022/09/24 17:40:07;;;;;;;5.60;1.35;;;12.70;99.90;;;;;;5079073;28;20124;-74
2022/09/24 17:42:33;;;;;;;5.00;1.05;;;12.60;99.90;;;;;;5080687;28;20055;-74
2022/09/24 17:44:58;;;;;;;7.93;1.50;;;12.60;99.90;;;;;;5079185;28;20048;-73
2022/09/24 17:47:54;;;;;;;6.95;1.80;;;12.50;99.90;;;;;;5080943;28;20116;-75
2022/09/24 17:50:12;;;;;;;7.35;1.38;;;12.50;99.90;;;;;;5080228;28;20548;-75
2022/09/24 17:52:38;;;;;;;11.50;3.05;;;12.40;99.90;;;;;;5062869;28;20174;-76
2022/09/24 17:55:07;;;;;;;5.70;1.45;;;12.40;99.90;;;;;;5079258;28;20483;-74
2022/09/24 17:57:39;;;;;;;5.50;1.23;;;12.40;99.90;;;;;;5079289;28;20090;-74
2022/09/24 18:00:06;;;;;;;7.03;1.63;;;12.30;99.90;;;;;;5057512;28;20094;-74
2022/09/24 18:02:32;;;;;;;6.00;1.50;;;12.20;99.90;;;;;;5079237;28;20037;-76
2022/09/24 18:04:59;;;;;;;5.57;1.10;;;12.20;99.90;;;;;;5078871;28;20076;-75
2022/09/24 18:07:26;;;;;;;5.25;1.00;;;12.20;99.90;;;;;;5080026;28;20043;-75
2022/09/24 18:09:54;;;;;;;4.97;1.00;;;12.10;99.90;;;;;;5078887;28;20033;-75
2022/09/24 18:12:21;;;;;;;8.93;1.30;;;12.10;99.90;;;;;;5061640;28;20106;-71
2022/09/24 18:14:46;;;;;;;5.30;1.08;;;12.00;99.90;;;;;;5080285;28;20112;-72
2022/09/24 18:17:12;;;;;;;9.80;1.40;;;12.00;99.90;;;;;;5061478;28;20500;-73
2022/09/24 18:19:38;;;;;;;6.90;1.50;;;11.90;99.90;;;;;;5062066;28;20040;-71
2022/09/24 18:22:07;;;;;;;7.07;1.70;;;11.90;99.90;;;;;;5079577;28;20113;-73
2022/09/24 18:24:33;;;;;;;5.82;1.48;;;11.80;99.90;;;;;;5061568;28;20036;-71
2022/09/24 18:26:58;;;;;;;6.88;1.58;;;11.70;99.90;;;;;;5062002;28;20492;-72
2022/09/24 18:29:25;;;;;;;7.15;1.35;;;11.70;99.90;;;;;;5076212;28;20125;-74
2022/09/24 18:31:50;;;;;;;3.67;1.27;;;11.60;99.90;;;;;;5061268;28;20492;-73
2022/09/24 18:34:16;;;;;;;7.00;1.60;;;11.60;99.90;;;;;;5061086;28;20047;-73
2022/09/24 18:36:44;;;;;;;5.75;1.40;;;11.50;99.90;;;;;;5061360;28;20037;-73
2022/09/24 18:39:12;;;;;;;8.38;2.38;;;11.50;99.90;;;;;;5079375;28;20108;-73
2022/09/24 18:41:38;;;;;;;8.00;1.55;;;11.40;99.90;;;;;;5077991;28;20036;-73
2022/09/24 18:44:05;;;;;;;6.57;1.48;;;11.30;99.90;;;;;;5077581;28;20166;-72
2022/09/24 18:46:32;;;;;;;5.70;1.63;;;11.30;99.90;;;;;;5077638;28;20047;-72
2022/09/24 18:48:59;;;;;;;11.25;1.92;;;11.30;99.90;;;;;;5077422;28;20102;-71
2022/09/24 18:51:29;;;;;;;6.07;1.60;;;11.20;99.90;;;;;;5077776;28;20040;-71
2022/09/24 18:54:01;;;;;;;7.22;1.88;;;11.20;99.90;;;;;;5077766;28;20051;-71
2022/09/24 18:56:28;;;;;;;5.97;1.80;;;11.20;99.90;;;;;;5078073;28;20073;-72
2022/09/24 18:58:59;;;;;;;5.70;1.67;;;11.10;99.90;;;;;;5076094;28;20051;-71
2022/09/24 19:01:26;;;;;;;8.88;1.95;;;11.00;99.90;;;;;;5077799;28;20398;-72
2022/09/24 19:03:58;;;;;;;7.28;1.42;;;11.00;99.90;;;;;;5077893;28;20036;-72
2022/09/24 19:06:25;;;;;;;5.78;1.58;;;10.90;99.90;;;;;;5076965;28;20500;-71
2022/09/24 19:08:51;;;;;;;14.88;2.45;;;10.90;99.90;;;;;;5077816;28;20083;-71
2022/09/24 19:11:17;;;;;;;7.22;1.85;;;10.80;99.90;;;;;;5059367;28;20088;-72
2022/09/24 19:13:48;;;;;;;6.65;1.88;;;10.80;99.90;;;;;;5078081;28;20052;-70
2022/09/24 19:16:15;;;;;;;6.93;2.55;;;10.70;99.90;;;;;;5077760;28;20036;-69
2022/09/24 19:18:41;;;;;;;7.90;2.08;;;10.60;99.90;;;;;;5077287;28;20040;-72
2022/09/24 19:21:09;;;;;;;7.53;2.10;;;10.60;99.90;;;;;;5077360;28;20048;-74
2022/09/24 19:23:43;;;;;;;10.80;1.88;;;10.50;99.90;;;;;;5060878;28;20535;-73
2022/09/24 19:26:11;;;;;;;8.52;2.15;;;10.50;99.90;;;;;;5078256;28;20036;-74
2022/09/24 19:28:42;;;;;;;9.40;2.40;;;10.40;99.90;;;;;;5077709;28;20098;-74
2022/09/24 19:31:28;;;;;;;11.60;2.92;;;10.30;99.90;;;;;;5078727;28;20549;-74
2022/09/24 19:33:55;;;;;;;7.07;2.40;;;10.30;99.90;;;;;;5076621;28;20040;-74
2022/09/24 19:36:21;;;;;;;5.93;2.30;;;10.20;99.90;;;;;;5074924;28;20143;-74
2022/09/24 19:38:49;;;;;;;6.85;2.42;;;10.20;99.90;;;;;;5074556;28;20051;-74
2022/09/24 19:41:20;;;;;;;9.63;2.85;;;10.20;99.90;;;;;;5073217;28;20040;-74
2022/09/24 19:43:46;;;;;;;8.70;2.42;;;10.10;99.90;;;;;;5073366;28;20040;-74
2022/09/24 19:46:24;;;;;;;7.78;2.42;;;10.10;99.90;;;;;;5072951;28;20085;-75
2022/09/24 19:48:52;;;;;;;8.50;2.92;;;10.00;99.90;;;;;;5076149;28;20094;-76
2022/09/24 19:51:20;;;;;;;9.77;2.95;;;10.00;99.90;;;;;;5076068;28;20084;-75
2022/09/24 19:53:48;;;;;;;7.18;2.80;;;10.00;99.90;;;;;;5078453;28;20040;-74
2022/09/24 19:56:15;;;;;;;9.02;3.03;;;10.00;99.90;;;;;;5059943;28;20044;-78
2022/09/24 19:58:44;;;;;;;10.32;3.20;;;9.90;99.90;;;;;;5077146;28;20044;-78
2022/09/24 20:01:10;;;;;;;8.30;3.08;;;10.00;99.90;;;;;;5060799;28;20062;-77
2022/09/24 20:03:37;;;;;;;6.75;2.85;;;9.90;99.90;;;;;;5060810;28;20045;-74
2022/09/24 20:06:08;;;;;;;8.05;3.38;;;9.90;99.90;;;;;;5076521;28;20040;-74
2022/09/24 20:08:34;;;;;;;8.57;3.70;;;9.90;99.90;;;;;;5078018;28;20044;-79
2022/09/24 20:11:06;;;;;;;9.63;3.03;;;9.90;99.90;;;;;;5076702;28;20087;-73
2022/09/24 20:13:32;;;;;;;13.13;3.05;;;9.90;99.90;;;;;;5076221;28;20084;-77
2022/09/24 20:16:00;;;;;;;11.07;3.17;;;9.80;99.90;;;;;;5077743;28;20195;-76
2022/09/24 20:18:26;;;;;;;8.02;3.40;;;9.90;99.90;;;;;;5060007;28;20183;-76
2022/09/24 20:20:55;;;;;;;13.32;3.13;;;9.90;99.90;;;;;;5078666;28;20146;-78
2022/09/24 20:23:22;;;;;;;6.88;2.92;;;9.90;99.90;;;;;;5077209;28;20123;-75
2022/09/24 20:28:33;;;;;;;8.52;3.05;;;9.80;99.90;;;;;;5076161;28;20048;-80
2022/09/24 20:30:59;;;;;;;10.13;3.05;;;9.80;99.90;;;;;;5075891;28;20041;-78
2022/09/24 20:33:28;;;;;;;8.70;3.03;;;9.80;99.90;;;;;;5076846;28;20496;-80
2022/09/24 20:36:01;;;;;;;9.57;2.90;;;9.70;99.90;;;;;;5076034;28;20041;-76
2022/09/24 20:38:28;;;;;;;8.27;3.10;;;9.70;99.90;;;;;;5076526;28;20043;-76
2022/09/24 20:40:55;;;;;;;6.70;2.80;;;9.70;99.90;;;;;;5074656;28;20553;-75
2022/09/24 20:43:26;;;;;;;9.02;3.50;;;9.60;99.90;;;;;;5067792;28;20404;-75
2022/09/24 20:45:53;;;;;;;8.13;2.88;;;9.60;99.90;;;;;;5073177;28;20067;-75
2022/09/24 20:48:18;;;;;;;11.73;3.15;;;9.60;99.90;;;;;;5074700;28;20047;-75
2022/09/24 20:50:47;;;;;;;9.88;3.22;;;9.60;99.90;;;;;;5073217;28;20040;-75
2022/09/24 20:53:13;;;;;;;8.25;2.78;;;9.60;99.90;;;;;;5072035;28;20048;-75
2022/09/24 20:55:39;;;;;;;9.02;3.17;;;9.60;99.90;;;;;;5073330;28;20037;-75
2022/09/24 20:58:05;;;;;;;7.82;2.92;;;9.50;99.90;;;;;;5054159;28;20051;-75
2022/09/24 21:00:34;;;;;;;9.20;3.33;;;9.50;99.90;;;;;;5072163;28;20051;-75
2022/09/24 21:03:03;;;;;;;6.55;2.92;;;9.50;99.90;;;;;;5073554;28;20123;-75
2022/09/24 21:05:29;;;;;;;5.82;2.70;;;9.50;99.90;;;;;;5073309;28;20044;-75
2022/09/24 21:07:54;;;;;;;14.57;3.10;;;9.50;99.90;;;;;;5072095;28;20050;-75
2022/09/24 21:10:20;;;;;;;8.75;2.78;;;9.50;99.90;;;;;;5055233;28;20513;-75
2022/09/24 21:12:46;;;;;;;8.55;2.72;;;9.40;99.90;;;;;;5072983;28;20049;-75
2022/09/24 21:15:12;;;;;;;9.30;2.70;;;9.50;99.90;;;;;;5073126;28;20051;-75
2022/09/24 21:17:38;;;;;;;12.88;3.78;;;9.50;99.90;;;;;;5071895;28;20079;-75
2022/09/24 21:20:04;;;;;;;9.63;3.05;;;9.50;99.90;;;;;;5071722;28;20072;-75
2022/09/24 21:22:33;;;;;;;7.60;2.40;;;9.50;99.90;;;;;;5072944;28;20039;-75
2022/09/24 21:24:59;;;;;;;6.25;2.40;;;9.50;99.90;;;;;;5071870;28;20040;-75
2022/09/24 21:27:24;;;;;;;5.85;3.25;;;9.50;99.90;;;;;;5071882;28;20042;-75
2022/09/24 21:29:50;;;;;;;6.47;2.55;;;9.50;99.90;;;;;;5071425;28;20051;-75
2022/09/24 21:32:17;;;;;;;8.38;3.15;;;9.50;99.90;;;;;;5071647;28;20083;-74
2022/09/24 21:34:44;;;;;;;13.95;2.97;;;9.50;99.90;;;;;;5073358;28;20059;-75
2022/09/24 21:37:13;;;;;;;9.05;2.67;;;9.40;99.90;;;;;;5071751;28;20492;-75
2022/09/24 21:39:41;;;;;;;7.53;3.07;;;9.40;99.90;;;;;;5071849;28;20051;-75
2022/09/24 21:42:08;;;;;;;7.53;3.50;;;9.40;99.90;;;;;;5073035;28;20274;-75
2022/09/24 21:44:34;;;;;;;10.18;3.10;;;9.40;99.90;;;;;;5073004;28;20040;-75
2022/09/24 21:47:00;;;;;;;13.57;4.43;;;9.40;99.90;;;;;;5073399;28;20391;-75
2022/09/24 21:49:26;;;;;;;8.75;3.28;;;9.40;99.90;;;;;;5072067;28;20039;-75
2022/09/24 21:51:54;;;;;;;9.70;3.72;;;9.40;99.90;;;;;;5071606;28;20048;-75
2022/09/24 21:54:20;;;;;;;5.53;3.60;;;9.40;99.90;;;;;;5071703;28;20539;-75
2022/09/24 21:56:46;;;;;;;13.18;3.72;;;9.40;99.90;;;;;;5072637;28;20040;-75
2022/09/24 22:01:58;;;;;;;8.75;2.90;;;9.40;99.90;;;;;;5071672;28;20052;-75
2022/09/24 22:04:25;;;;;;;5.47;3.50;;;9.40;99.90;;;;;;5071294;28;20491;-75
2022/09/24 22:06:51;;;;;;;6.32;2.97;;;9.40;99.90;;;;;;5072647;28;20072;-75
2022/09/24 22:09:17;;;;;;;8.48;3.28;;;9.40;99.90;;;;;;5071676;28;20040;-74
2022/09/24 22:11:44;;;;;;;6.10;3.28;;;9.30;99.90;;;;;;5054292;28;20041;-74
2022/09/24 22:14:10;;;;;;;7.15;3.22;;;9.30;99.90;;;;;;5071328;28;20514;-75
2022/09/24 22:16:37;;;;;;;8.75;3.33;;;9.30;99.90;;;;;;5071093;28;20037;-75
2022/09/24 22:19:04;;;;;;;10.88;3.63;;;9.30;99.90;;;;;;5074851;28;20054;-75
2022/09/24 22:21:31;;;;;;;9.75;3.42;;;9.20;99.90;;;;;;5076270;28;20040;-75
2022/09/24 22:23:57;;;;;;;7.00;3.40;;;9.20;99.90;;;;;;5074994;28;20048;-74
2022/09/24 22:26:24;;;;;;;13.15;3.95;;;9.20;99.90;;;;;;5074881;28;20041;-75
2022/09/24 22:28:51;;;;;;;7.00;2.40;;;9.20;99.90;;;;;;5075067;28;20044;-74
2022/09/24 22:31:18;;;;;;;5.68;2.22;;;9.10;99.90;;;;;;5076068;28;20116;-75
2022/09/24 22:36:31;;;;;;;40.25;4.68;;;9.00;99.90;;;;;;5074661;28;20052;-75
2022/09/24 22:38:58;;;;;;;16.85;4.15;;;9.00;99.90;;;;;;5075061;28;20076;-74
2022/09/24 22:41:27;;;;;;;12.85;4.88;;;8.90;99.90;;;;;;5074958;28;20123;-75